sensor_id;sensor_type;location;lat;lon;timestamp;P1;durP1;ratioP1;P2;durP2;ratioP2
9208;SDS011;4639;48.862;9.188;2023-07-31T00:01:20;93.63;;;88.00;;
9208;SDS011;4639;48.862;9.188;2023-07-31T00:03:46;90.68;;;85.07;;
9208;SDS011;4639;48.862;9.188;2023-07-31T00:06:12;24.80;;;23.30;;
9208;SDS011;4639;48.862;9.188;2023-07-31T00:08:37;26.42;;;24.90;;
9208;SDS011;4639;48.862;9.188;2023-07-31T00:11:03;24.20;;;22.77;;
9208;SDS011;4639;48.862;9.188;2023-07-31T00:13:28;21.67;;;20.38;;
9208;SDS011;4639;48.862;9.188;2023-07-31T00:15:54;22.85;;;21.27;;
9208;SDS011;4639;48.862;9.188;2023-07-31T00:18:20;25.25;;;23.58;;
9208;SDS011;4639;48.862;9.188;2023-07-31T00:20:45;29.77;;;27.67;;
9208;SDS011;4639;48.862;9.188;2023-07-31T00:23:11;29.33;;;27.08;;
9208;SDS011;4639;48.862;9.188;2023-07-31T00:25:36;27.20;;;25.33;;
9208;SDS011;4639;48.862;9.188;2023-07-31T00:28:02;31.35;;;29.17;;
9208;SDS011;4639;48.862;9.188;2023-07-31T00:30:28;24.52;;;22.92;;
9208;SDS011;4639;48.862;9.188;2023-07-31T00:32:53;25.05;;;23.30;;
9208;SDS011;4639;48.862;9.188;2023-07-31T00:35:19;43.15;;;40.10;;
9208;SDS011;4639;48.862;9.188;2023-07-31T00:37:44;25.45;;;23.85;;
9208;SDS011;4639;48.862;9.188;2023-07-31T00:40:10;26.08;;;24.25;;
9208;SDS011;4639;48.862;9.188;2023-07-31T00:42:35;25.15;;;23.52;;
9208;SDS011;4639;48.862;9.188;2023-07-31T00:45:01;27.17;;;25.38;;
9208;SDS011;4639;48.862;9.188;2023-07-31T00:47:27;26.52;;;24.83;;
9208;SDS011;4639;48.862;9.188;2023-07-31T00:49:52;27.27;;;25.38;;
9208;SDS011;4639;48.862;9.188;2023-07-31T00:52:18;23.55;;;22.15;;
9208;SDS011;4639;48.862;9.188;2023-07-31T00:54:45;14.50;;;13.50;;
9208;SDS011;4639;48.862;9.188;2023-07-31T00:57:11;19.85;;;18.55;;
9208;SDS011;4639;48.862;9.188;2023-07-31T00:59:36;19.17;;;17.77;;
9208;SDS011;4639;48.862;9.188;2023-07-31T01:02:02;16.83;;;15.80;;
9208;SDS011;4639;48.862;9.188;2023-07-31T01:04:28;18.38;;;16.90;;
9208;SDS011;4639;48.862;9.188;2023-07-31T01:07:01;17.33;;;16.23;;
9208;SDS011;4639;48.862;9.188;2023-07-31T01:09:47;18.48;;;16.98;;
9208;SDS011;4639;48.862;9.188;2023-07-31T01:12:29;19.63;;;18.33;;
9208;SDS011;4639;48.862;9.188;2023-07-31T01:17:28;24.88;;;23.13;;
9208;SDS011;4639;48.862;9.188;2023-07-31T01:19:55;24.70;;;23.10;;
9208;SDS011;4639;48.862;9.188;2023-07-31T01:22:34;30.88;;;28.77;;
9208;SDS011;4639;48.862;9.188;2023-07-31T01:27:50;33.78;;;31.63;;
9208;SDS011;4639;48.862;9.188;2023-07-31T01:30:25;37.40;;;34.88;;
9208;SDS011;4639;48.862;9.188;2023-07-31T01:32:53;44.78;;;42.08;;
9208;SDS011;4639;48.862;9.188;2023-07-31T01:35:21;44.83;;;41.78;;
9208;SDS011;4639;48.862;9.188;2023-07-31T01:37:47;39.20;;;36.90;;
9208;SDS011;4639;48.862;9.188;2023-07-31T01:40:12;37.47;;;35.10;;
9208;SDS011;4639;48.862;9.188;2023-07-31T01:42:38;53.88;;;50.40;;
9208;SDS011;4639;48.862;9.188;2023-07-31T01:45:04;53.88;;;50.50;;
9208;SDS011;4639;48.862;9.188;2023-07-31T01:47:30;67.63;;;63.55;;
9208;SDS011;4639;48.862;9.188;2023-07-31T01:49:55;67.75;;;63.42;;
9208;SDS011;4639;48.862;9.188;2023-07-31T01:52:21;60.47;;;56.80;;
9208;SDS011;4639;48.862;9.188;2023-07-31T01:54:46;57.15;;;53.75;;
9208;SDS011;4639;48.862;9.188;2023-07-31T01:57:13;55.80;;;52.33;;
9208;SDS011;4639;48.862;9.188;2023-07-31T01:59:38;61.85;;;57.75;;
9208;SDS011;4639;48.862;9.188;2023-07-31T02:02:04;52.67;;;49.50;;
9208;SDS011;4639;48.862;9.188;2023-07-31T02:04:30;58.00;;;54.42;;
9208;SDS011;4639;48.862;9.188;2023-07-31T02:06:55;52.28;;;49.17;;
9208;SDS011;4639;48.862;9.188;2023-07-31T02:09:21;55.80;;;52.42;;
9208;SDS011;4639;48.862;9.188;2023-07-31T02:11:46;57.15;;;53.45;;
9208;SDS011;4639;48.862;9.188;2023-07-31T02:14:12;66.18;;;62.15;;
9208;SDS011;4639;48.862;9.188;2023-07-31T02:16:37;64.82;;;60.78;;
9208;SDS011;4639;48.862;9.188;2023-07-31T02:19:03;67.03;;;62.50;;
9208;SDS011;4639;48.862;9.188;2023-07-31T02:21:28;60.80;;;57.08;;
9208;SDS011;4639;48.862;9.188;2023-07-31T02:23:54;66.47;;;62.30;;
9208;SDS011;4639;48.862;9.188;2023-07-31T02:26:19;63.97;;;59.97;;
9208;SDS011;4639;48.862;9.188;2023-07-31T02:28:45;64.80;;;60.88;;
9208;SDS011;4639;48.862;9.188;2023-07-31T02:31:11;71.30;;;66.90;;
9208;SDS011;4639;48.862;9.188;2023-07-31T02:33:36;67.05;;;63.13;;
9208;SDS011;4639;48.862;9.188;2023-07-31T02:36:02;71.85;;;67.07;;
9208;SDS011;4639;48.862;9.188;2023-07-31T02:38:27;73.22;;;68.78;;
9208;SDS011;4639;48.862;9.188;2023-07-31T02:40:53;73.85;;;69.28;;
9208;SDS011;4639;48.862;9.188;2023-07-31T02:43:19;70.63;;;66.50;;
9208;SDS011;4639;48.862;9.188;2023-07-31T02:45:44;79.93;;;74.97;;
9208;SDS011;4639;48.862;9.188;2023-07-31T02:48:10;66.78;;;62.88;;
9208;SDS011;4639;48.862;9.188;2023-07-31T02:50:35;59.05;;;55.50;;
9208;SDS011;4639;48.862;9.188;2023-07-31T02:53:01;94.97;;;88.68;;
9208;SDS011;4639;48.862;9.188;2023-07-31T02:55:26;69.03;;;64.68;;
9208;SDS011;4639;48.862;9.188;2023-07-31T02:57:52;94.65;;;88.70;;
9208;SDS011;4639;48.862;9.188;2023-07-31T03:00:18;81.80;;;76.80;;
9208;SDS011;4639;48.862;9.188;2023-07-31T03:02:43;74.95;;;70.28;;
9208;SDS011;4639;48.862;9.188;2023-07-31T03:05:09;75.70;;;71.03;;
9208;SDS011;4639;48.862;9.188;2023-07-31T03:07:35;87.22;;;81.80;;
9208;SDS011;4639;48.862;9.188;2023-07-31T03:10:00;65.95;;;62.05;;
9208;SDS011;4639;48.862;9.188;2023-07-31T03:12:26;72.30;;;67.82;;
9208;SDS011;4639;48.862;9.188;2023-07-31T03:14:52;72.40;;;67.90;;
9208;SDS011;4639;48.862;9.188;2023-07-31T03:17:18;66.57;;;62.35;;
9208;SDS011;4639;48.862;9.188;2023-07-31T03:19:43;73.53;;;69.03;;
9208;SDS011;4639;48.862;9.188;2023-07-31T03:22:09;74.65;;;70.15;;
9208;SDS011;4639;48.862;9.188;2023-07-31T03:24:34;73.53;;;68.93;;
9208;SDS011;4639;48.862;9.188;2023-07-31T03:27:00;78.43;;;73.68;;
9208;SDS011;4639;48.862;9.188;2023-07-31T03:29:25;67.55;;;63.47;;
9208;SDS011;4639;48.862;9.188;2023-07-31T03:31:51;63.00;;;58.95;;
9208;SDS011;4639;48.862;9.188;2023-07-31T03:34:16;67.15;;;62.95;;
9208;SDS011;4639;48.862;9.188;2023-07-31T03:36:42;63.35;;;59.45;;
9208;SDS011;4639;48.862;9.188;2023-07-31T03:39:08;61.33;;;57.38;;
9208;SDS011;4639;48.862;9.188;2023-07-31T03:41:33;59.05;;;55.17;;
9208;SDS011;4639;48.862;9.188;2023-07-31T03:43:59;59.28;;;55.45;;
9208;SDS011;4639;48.862;9.188;2023-07-31T03:46:24;61.35;;;57.55;;
9208;SDS011;4639;48.862;9.188;2023-07-31T03:48:50;59.60;;;56.00;;
9208;SDS011;4639;48.862;9.188;2023-07-31T03:51:16;55.05;;;51.50;;
9208;SDS011;4639;48.862;9.188;2023-07-31T03:53:43;58.90;;;55.28;;
9208;SDS011;4639;48.862;9.188;2023-07-31T03:56:08;61.67;;;57.83;;
9208;SDS011;4639;48.862;9.188;2023-07-31T03:58:34;57.35;;;53.28;;
9208;SDS011;4639;48.862;9.188;2023-07-31T04:01:00;58.95;;;55.28;;
9208;SDS011;4639;48.862;9.188;2023-07-31T04:03:26;57.30;;;53.38;;
9208;SDS011;4639;48.862;9.188;2023-07-31T04:05:53;55.85;;;52.25;;
9208;SDS011;4639;48.862;9.188;2023-07-31T04:08:19;57.90;;;54.38;;
9208;SDS011;4639;48.862;9.188;2023-07-31T04:10:45;51.97;;;48.80;;
9208;SDS011;4639;48.862;9.188;2023-07-31T04:13:10;51.72;;;48.47;;
9208;SDS011;4639;48.862;9.188;2023-07-31T04:15:36;50.17;;;46.97;;
9208;SDS011;4639;48.862;9.188;2023-07-31T04:18:02;48.40;;;45.47;;
9208;SDS011;4639;48.862;9.188;2023-07-31T04:20:27;42.03;;;39.30;;
9208;SDS011;4639;48.862;9.188;2023-07-31T04:22:53;41.35;;;38.85;;
9208;SDS011;4639;48.862;9.188;2023-07-31T04:25:18;45.03;;;42.15;;
9208;SDS011;4639;48.862;9.188;2023-07-31T04:27:44;41.95;;;39.30;;
9208;SDS011;4639;48.862;9.188;2023-07-31T04:30:09;36.08;;;33.72;;
9208;SDS011;4639;48.862;9.188;2023-07-31T04:32:35;25.20;;;23.60;;
9208;SDS011;4639;48.862;9.188;2023-07-31T04:35:01;24.15;;;22.40;;
9208;SDS011;4639;48.862;9.188;2023-07-31T04:37:27;26.48;;;24.80;;
9208;SDS011;4639;48.862;9.188;2023-07-31T04:39:52;22.52;;;20.95;;
9208;SDS011;4639;48.862;9.188;2023-07-31T04:42:18;19.60;;;18.30;;
9208;SDS011;4639;48.862;9.188;2023-07-31T04:44:44;22.45;;;20.52;;
9208;SDS011;4639;48.862;9.188;2023-07-31T04:47:10;21.50;;;20.00;;
9208;SDS011;4639;48.862;9.188;2023-07-31T04:49:35;22.45;;;20.98;;
9208;SDS011;4639;48.862;9.188;2023-07-31T04:52:01;17.65;;;16.45;;
9208;SDS011;4639;48.862;9.188;2023-07-31T04:54:26;20.70;;;19.20;;
9208;SDS011;4639;48.862;9.188;2023-07-31T04:56:52;20.90;;;19.45;;
9208;SDS011;4639;48.862;9.188;2023-07-31T04:59:17;18.33;;;17.13;;
9208;SDS011;4639;48.862;9.188;2023-07-31T05:01:43;25.88;;;24.15;;
9208;SDS011;4639;48.862;9.188;2023-07-31T05:04:12;17.63;;;16.33;;
9208;SDS011;4639;48.862;9.188;2023-07-31T05:06:39;25.75;;;24.05;;
9208;SDS011;4639;48.862;9.188;2023-07-31T05:09:04;22.90;;;21.23;;
9208;SDS011;4639;48.862;9.188;2023-07-31T05:11:30;20.60;;;19.02;;
9208;SDS011;4639;48.862;9.188;2023-07-31T05:13:56;31.75;;;29.58;;
9208;SDS011;4639;48.862;9.188;2023-07-31T05:16:21;23.92;;;22.30;;
9208;SDS011;4639;48.862;9.188;2023-07-31T05:18:47;23.50;;;21.77;;
9208;SDS011;4639;48.862;9.188;2023-07-31T05:21:12;21.88;;;20.40;;
9208;SDS011;4639;48.862;9.188;2023-07-31T05:23:38;21.00;;;19.80;;
9208;SDS011;4639;48.862;9.188;2023-07-31T05:26:04;27.42;;;25.50;;
9208;SDS011;4639;48.862;9.188;2023-07-31T05:28:30;23.60;;;21.70;;
9208;SDS011;4639;48.862;9.188;2023-07-31T05:31:02;25.40;;;23.73;;
9208;SDS011;4639;48.862;9.188;2023-07-31T05:33:29;25.42;;;23.73;;
9208;SDS011;4639;48.862;9.188;2023-07-31T05:35:55;26.20;;;24.30;;
9208;SDS011;4639;48.862;9.188;2023-07-31T05:38:21;34.22;;;31.80;;
9208;SDS011;4639;48.862;9.188;2023-07-31T05:40:47;33.15;;;31.20;;
9208;SDS011;4639;48.862;9.188;2023-07-31T05:43:12;37.97;;;35.38;;
9208;SDS011;4639;48.862;9.188;2023-07-31T05:45:38;35.58;;;33.05;;
9208;SDS011;4639;48.862;9.188;2023-07-31T05:48:05;34.20;;;32.30;;
9208;SDS011;4639;48.862;9.188;2023-07-31T05:50:30;42.10;;;39.45;;
9208;SDS011;4639;48.862;9.188;2023-07-31T05:52:56;45.60;;;42.78;;
9208;SDS011;4639;48.862;9.188;2023-07-31T05:55:22;45.22;;;42.53;;
9208;SDS011;4639;48.862;9.188;2023-07-31T05:57:48;44.10;;;41.20;;
9208;SDS011;4639;48.862;9.188;2023-07-31T06:00:14;40.65;;;38.05;;
9208;SDS011;4639;48.862;9.188;2023-07-31T06:02:39;43.88;;;41.22;;
9208;SDS011;4639;48.862;9.188;2023-07-31T06:05:05;39.33;;;36.53;;
9208;SDS011;4639;48.862;9.188;2023-07-31T06:07:31;42.95;;;40.03;;
9208;SDS011;4639;48.862;9.188;2023-07-31T06:09:57;24.15;;;22.52;;
9208;SDS011;4639;48.862;9.188;2023-07-31T06:12:30;25.70;;;23.95;;
9208;SDS011;4639;48.862;9.188;2023-07-31T06:14:59;50.78;;;46.90;;
9208;SDS011;4639;48.862;9.188;2023-07-31T06:17:24;14.35;;;13.25;;
9208;SDS011;4639;48.862;9.188;2023-07-31T06:19:51;14.50;;;13.57;;
9208;SDS011;4639;48.862;9.188;2023-07-31T06:22:16;12.65;;;11.75;;
9208;SDS011;4639;48.862;9.188;2023-07-31T06:24:42;39.05;;;36.47;;
9208;SDS011;4639;48.862;9.188;2023-07-31T06:27:08;15.43;;;14.35;;
9208;SDS011;4639;48.862;9.188;2023-07-31T06:29:34;13.95;;;12.63;;
9208;SDS011;4639;48.862;9.188;2023-07-31T06:32:00;25.15;;;23.45;;
9208;SDS011;4639;48.862;9.188;2023-07-31T06:34:25;34.95;;;32.75;;
9208;SDS011;4639;48.862;9.188;2023-07-31T06:36:51;97.68;;;91.45;;
9208;SDS011;4639;48.862;9.188;2023-07-31T06:39:16;22.95;;;21.48;;
9208;SDS011;4639;48.862;9.188;2023-07-31T06:41:43;23.13;;;21.48;;
9208;SDS011;4639;48.862;9.188;2023-07-31T06:44:09;65.70;;;61.53;;
9208;SDS011;4639;48.862;9.188;2023-07-31T06:46:35;135.20;;;124.93;;
9208;SDS011;4639;48.862;9.188;2023-07-31T06:49:00;31.67;;;29.48;;
9208;SDS011;4639;48.862;9.188;2023-07-31T06:51:26;83.15;;;77.03;;
9208;SDS011;4639;48.862;9.188;2023-07-31T06:53:51;128.27;;;117.90;;
9208;SDS011;4639;48.862;9.188;2023-07-31T06:56:17;72.57;;;67.22;;
9208;SDS011;4639;48.862;9.188;2023-07-31T06:58:42;72.95;;;67.88;;
9208;SDS011;4639;48.862;9.188;2023-07-31T07:01:08;74.97;;;69.00;;
9208;SDS011;4639;48.862;9.188;2023-07-31T07:03:33;42.88;;;39.83;;
9208;SDS011;4639;48.862;9.188;2023-07-31T07:05:59;45.83;;;42.83;;
9208;SDS011;4639;48.862;9.188;2023-07-31T07:08:25;35.80;;;33.55;;
9208;SDS011;4639;48.862;9.188;2023-07-31T07:10:51;38.55;;;36.03;;
9208;SDS011;4639;48.862;9.188;2023-07-31T07:13:16;82.15;;;76.07;;
9208;SDS011;4639;48.862;9.188;2023-07-31T07:15:43;36.70;;;34.42;;
9208;SDS011;4639;48.862;9.188;2023-07-31T07:18:13;166.88;;;153.32;;
9208;SDS011;4639;48.862;9.188;2023-07-31T07:20:39;49.28;;;46.13;;
9208;SDS011;4639;48.862;9.188;2023-07-31T07:23:04;98.78;;;91.32;;
9208;SDS011;4639;48.862;9.188;2023-07-31T07:25:30;43.80;;;40.70;;
9208;SDS011;4639;48.862;9.188;2023-07-31T07:27:56;31.48;;;29.52;;
9208;SDS011;4639;48.862;9.188;2023-07-31T07:30:21;72.35;;;67.57;;
9208;SDS011;4639;48.862;9.188;2023-07-31T07:32:48;40.03;;;37.42;;
9208;SDS011;4639;48.862;9.188;2023-07-31T07:35:14;34.17;;;31.80;;
9208;SDS011;4639;48.862;9.188;2023-07-31T07:37:39;55.53;;;52.03;;
9208;SDS011;4639;48.862;9.188;2023-07-31T07:40:05;78.45;;;73.25;;
9208;SDS011;4639;48.862;9.188;2023-07-31T07:42:31;77.63;;;72.20;;
9208;SDS011;4639;48.862;9.188;2023-07-31T07:44:57;67.55;;;62.28;;
9208;SDS011;4639;48.862;9.188;2023-07-31T07:47:23;142.13;;;131.80;;
9208;SDS011;4639;48.862;9.188;2023-07-31T07:49:48;84.78;;;78.38;;
9208;SDS011;4639;48.862;9.188;2023-07-31T07:52:14;36.58;;;34.33;;
9208;SDS011;4639;48.862;9.188;2023-07-31T07:54:39;37.85;;;35.58;;
9208;SDS011;4639;48.862;9.188;2023-07-31T07:57:05;53.22;;;49.80;;
9208;SDS011;4639;48.862;9.188;2023-07-31T07:59:30;253.73;;;233.43;;
9208;SDS011;4639;48.862;9.188;2023-07-31T08:01:56;74.63;;;70.05;;
9208;SDS011;4639;48.862;9.188;2023-07-31T08:04:22;202.05;;;188.88;;
9208;SDS011;4639;48.862;9.188;2023-07-31T08:06:48;221.05;;;204.57;;
9208;SDS011;4639;48.862;9.188;2023-07-31T08:09:13;97.47;;;91.53;;
9208;SDS011;4639;48.862;9.188;2023-07-31T08:11:39;114.97;;;108.28;;
9208;SDS011;4639;48.862;9.188;2023-07-31T08:14:05;132.40;;;124.68;;
9208;SDS011;4639;48.862;9.188;2023-07-31T08:16:30;149.18;;;140.60;;
9208;SDS011;4639;48.862;9.188;2023-07-31T08:18:56;121.00;;;113.78;;
9208;SDS011;4639;48.862;9.188;2023-07-31T08:21:22;168.10;;;157.82;;
9208;SDS011;4639;48.862;9.188;2023-07-31T08:23:48;335.75;;;306.95;;
9208;SDS011;4639;48.862;9.188;2023-07-31T08:26:14;122.32;;;115.45;;
9208;SDS011;4639;48.862;9.188;2023-07-31T08:28:41;188.48;;;176.75;;
9208;SDS011;4639;48.862;9.188;2023-07-31T08:31:06;176.95;;;166.20;;
9208;SDS011;4639;48.862;9.188;2023-07-31T08:33:32;269.63;;;249.38;;
9208;SDS011;4639;48.862;9.188;2023-07-31T08:35:57;341.60;;;311.27;;
9208;SDS011;4639;48.862;9.188;2023-07-31T08:38:24;300.63;;;277.10;;
9208;SDS011;4639;48.862;9.188;2023-07-31T08:40:50;169.20;;;158.48;;
9208;SDS011;4639;48.862;9.188;2023-07-31T08:43:16;148.23;;;138.95;;
9208;SDS011;4639;48.862;9.188;2023-07-31T08:45:42;178.23;;;166.32;;
9208;SDS011;4639;48.862;9.188;2023-07-31T08:48:08;162.60;;;151.50;;
9208;SDS011;4639;48.862;9.188;2023-07-31T08:50:34;171.32;;;158.93;;
9208;SDS011;4639;48.862;9.188;2023-07-31T08:53:01;169.25;;;156.55;;
9208;SDS011;4639;48.862;9.188;2023-07-31T08:55:27;201.75;;;186.20;;
9208;SDS011;4639;48.862;9.188;2023-07-31T08:57:54;217.60;;;200.13;;
9208;SDS011;4639;48.862;9.188;2023-07-31T09:00:20;83.85;;;78.43;;
9208;SDS011;4639;48.862;9.188;2023-07-31T09:02:54;98.88;;;92.82;;
9208;SDS011;4639;48.862;9.188;2023-07-31T09:05:24;184.43;;;169.20;;
9208;SDS011;4639;48.862;9.188;2023-07-31T09:07:52;73.97;;;69.03;;
9208;SDS011;4639;48.862;9.188;2023-07-31T09:10:19;77.38;;;71.97;;
9208;SDS011;4639;48.862;9.188;2023-07-31T09:12:45;68.28;;;63.88;;
9208;SDS011;4639;48.862;9.188;2023-07-31T09:15:11;126.55;;;116.65;;
9208;SDS011;4639;48.862;9.188;2023-07-31T09:17:37;236.90;;;216.30;;
9208;SDS011;4639;48.862;9.188;2023-07-31T09:20:15;127.45;;;117.13;;
9208;SDS011;4639;48.862;9.188;2023-07-31T09:22:41;194.05;;;179.07;;
9208;SDS011;4639;48.862;9.188;2023-07-31T09:25:14;214.00;;;198.38;;
9208;SDS011;4639;48.862;9.188;2023-07-31T09:30:13;137.18;;;128.30;;
9208;SDS011;4639;48.862;9.188;2023-07-31T09:32:38;235.05;;;217.07;;
9208;SDS011;4639;48.862;9.188;2023-07-31T09:35:18;222.70;;;206.75;;
9208;SDS011;4639;48.862;9.188;2023-07-31T09:37:58;208.48;;;193.43;;
9208;SDS011;4639;48.862;9.188;2023-07-31T09:40:26;247.57;;;229.13;;
9208;SDS011;4639;48.862;9.188;2023-07-31T09:42:56;124.55;;;117.28;;
9208;SDS011;4639;48.862;9.188;2023-07-31T09:45:23;120.60;;;113.63;;
9208;SDS011;4639;48.862;9.188;2023-07-31T09:47:49;151.18;;;142.00;;
9208;SDS011;4639;48.862;9.188;2023-07-31T09:50:15;135.60;;;126.80;;
9208;SDS011;4639;48.862;9.188;2023-07-31T09:52:41;139.00;;;130.68;;
9208;SDS011;4639;48.862;9.188;2023-07-31T09:55:07;195.45;;;181.70;;
9208;SDS011;4639;48.862;9.188;2023-07-31T09:57:33;180.30;;;168.65;;
9208;SDS011;4639;48.862;9.188;2023-07-31T10:00:00;165.27;;;154.30;;
9208;SDS011;4639;48.862;9.188;2023-07-31T10:02:27;72.63;;;68.05;;
9208;SDS011;4639;48.862;9.188;2023-07-31T10:04:54;53.03;;;49.70;;
9208;SDS011;4639;48.862;9.188;2023-07-31T10:07:23;224.75;;;205.00;;
9208;SDS011;4639;48.862;9.188;2023-07-31T10:09:51;47.13;;;44.03;;
9208;SDS011;4639;48.862;9.188;2023-07-31T10:12:19;68.03;;;63.63;;
9208;SDS011;4639;48.862;9.188;2023-07-31T10:14:47;158.85;;;145.40;;
9208;SDS011;4639;48.862;9.188;2023-07-31T10:17:12;66.50;;;61.95;;
9208;SDS011;4639;48.862;9.188;2023-07-31T10:19:39;39.17;;;36.58;;
9208;SDS011;4639;48.862;9.188;2023-07-31T10:22:06;114.85;;;105.45;;
9208;SDS011;4639;48.862;9.188;2023-07-31T10:24:32;168.63;;;154.43;;
9208;SDS011;4639;48.862;9.188;2023-07-31T10:26:59;69.47;;;65.10;;
9208;SDS011;4639;48.862;9.188;2023-07-31T10:29:26;178.82;;;163.75;;
9208;SDS011;4639;48.862;9.188;2023-07-31T10:31:54;95.38;;;88.72;;
9208;SDS011;4639;48.862;9.188;2023-07-31T10:34:23;84.07;;;78.60;;
9208;SDS011;4639;48.862;9.188;2023-07-31T10:36:49;158.35;;;147.23;;
9208;SDS011;4639;48.862;9.188;2023-07-31T10:39:34;65.60;;;61.45;;
9208;SDS011;4639;48.862;9.188;2023-07-31T10:42:09;53.80;;;50.50;;
9208;SDS011;4639;48.862;9.188;2023-07-31T10:44:38;118.68;;;110.00;;
9208;SDS011;4639;48.862;9.188;2023-07-31T10:47:08;63.00;;;58.63;;
9208;SDS011;4639;48.862;9.188;2023-07-31T10:49:34;49.60;;;46.30;;
9208;SDS011;4639;48.862;9.188;2023-07-31T10:51:59;39.97;;;37.13;;
9208;SDS011;4639;48.862;9.188;2023-07-31T10:54:28;31.05;;;29.02;;
9208;SDS011;4639;48.862;9.188;2023-07-31T10:56:54;30.30;;;27.88;;
9208;SDS011;4639;48.862;9.188;2023-07-31T10:59:26;69.22;;;64.65;;
9208;SDS011;4639;48.862;9.188;2023-07-31T11:01:53;48.00;;;44.83;;
9208;SDS011;4639;48.862;9.188;2023-07-31T11:04:23;44.35;;;41.47;;
9208;SDS011;4639;48.862;9.188;2023-07-31T11:06:59;29.65;;;27.65;;
9208;SDS011;4639;48.862;9.188;2023-07-31T11:09:29;16.98;;;15.75;;
9208;SDS011;4639;48.862;9.188;2023-07-31T11:11:57;19.33;;;18.02;;
9208;SDS011;4639;48.862;9.188;2023-07-31T11:14:23;17.50;;;16.10;;
9208;SDS011;4639;48.862;9.188;2023-07-31T11:16:49;13.30;;;12.35;;
9208;SDS011;4639;48.862;9.188;2023-07-31T11:19:21;101.07;;;92.75;;
9208;SDS011;4639;48.862;9.188;2023-07-31T11:21:50;12.75;;;11.63;;
9208;SDS011;4639;48.862;9.188;2023-07-31T11:24:17;28.10;;;26.15;;
9208;SDS011;4639;48.862;9.188;2023-07-31T11:26:53;40.80;;;37.75;;
9208;SDS011;4639;48.862;9.188;2023-07-31T11:29:19;14.43;;;13.32;;
9208;SDS011;4639;48.862;9.188;2023-07-31T11:31:46;23.88;;;22.27;;
9208;SDS011;4639;48.862;9.188;2023-07-31T11:34:13;22.23;;;20.42;;
9208;SDS011;4639;48.862;9.188;2023-07-31T11:36:38;53.63;;;49.25;;
9208;SDS011;4639;48.862;9.188;2023-07-31T11:39:04;39.72;;;36.95;;
9208;SDS011;4639;48.862;9.188;2023-07-31T11:41:34;30.90;;;28.55;;
9208;SDS011;4639;48.862;9.188;2023-07-31T11:44:00;40.75;;;37.72;;
9208;SDS011;4639;48.862;9.188;2023-07-31T11:46:26;23.77;;;21.92;;
9208;SDS011;4639;48.862;9.188;2023-07-31T11:48:51;25.27;;;23.45;;
9208;SDS011;4639;48.862;9.188;2023-07-31T11:51:17;140.90;;;129.05;;
9208;SDS011;4639;48.862;9.188;2023-07-31T11:53:53;32.80;;;30.45;;
9208;SDS011;4639;48.862;9.188;2023-07-31T11:56:22;127.70;;;116.63;;
9208;SDS011;4639;48.862;9.188;2023-07-31T11:58:51;112.18;;;103.63;;
9208;SDS011;4639;48.862;9.188;2023-07-31T12:01:20;47.10;;;43.80;;
9208;SDS011;4639;48.862;9.188;2023-07-31T12:03:47;88.95;;;82.05;;
9208;SDS011;4639;48.862;9.188;2023-07-31T12:06:13;39.05;;;35.85;;
9208;SDS011;4639;48.862;9.188;2023-07-31T12:08:38;94.65;;;87.00;;
9208;SDS011;4639;48.862;9.188;2023-07-31T12:11:04;133.88;;;122.30;;
9208;SDS011;4639;48.862;9.188;2023-07-31T12:13:31;20.98;;;19.50;;
9208;SDS011;4639;48.862;9.188;2023-07-31T12:15:59;25.90;;;23.90;;
9208;SDS011;4639;48.862;9.188;2023-07-31T12:18:28;19.30;;;17.83;;
9208;SDS011;4639;48.862;9.188;2023-07-31T12:20:58;26.92;;;25.05;;
9208;SDS011;4639;48.862;9.188;2023-07-31T12:23:26;38.30;;;35.90;;
9208;SDS011;4639;48.862;9.188;2023-07-31T12:28:35;25.70;;;23.90;;
9208;SDS011;4639;48.862;9.188;2023-07-31T12:31:03;21.77;;;20.20;;
9208;SDS011;4639;48.862;9.188;2023-07-31T12:33:34;13.98;;;12.90;;
9208;SDS011;4639;48.862;9.188;2023-07-31T12:36:01;17.02;;;15.63;;
9208;SDS011;4639;48.862;9.188;2023-07-31T12:38:28;17.65;;;16.30;;
9208;SDS011;4639;48.862;9.188;2023-07-31T12:40:54;22.95;;;21.17;;
9208;SDS011;4639;48.862;9.188;2023-07-31T12:43:20;91.18;;;83.55;;
9208;SDS011;4639;48.862;9.188;2023-07-31T12:45:45;130.52;;;119.53;;
9208;SDS011;4639;48.862;9.188;2023-07-31T12:48:12;17.05;;;15.75;;
9208;SDS011;4639;48.862;9.188;2023-07-31T12:50:38;17.15;;;15.93;;
9208;SDS011;4639;48.862;9.188;2023-07-31T12:53:04;17.05;;;15.45;;
9208;SDS011;4639;48.862;9.188;2023-07-31T12:55:30;20.25;;;18.65;;
9208;SDS011;4639;48.862;9.188;2023-07-31T12:57:56;38.63;;;35.63;;
9208;SDS011;4639;48.862;9.188;2023-07-31T13:00:22;46.17;;;42.25;;
9208;SDS011;4639;48.862;9.188;2023-07-31T13:02:47;25.92;;;23.77;;
9208;SDS011;4639;48.862;9.188;2023-07-31T13:05:13;18.92;;;17.55;;
9208;SDS011;4639;48.862;9.188;2023-07-31T13:07:39;154.05;;;141.05;;
9208;SDS011;4639;48.862;9.188;2023-07-31T13:10:06;17.45;;;15.82;;
9208;SDS011;4639;48.862;9.188;2023-07-31T13:12:32;98.35;;;89.82;;
9208;SDS011;4639;48.862;9.188;2023-07-31T13:14:57;14.23;;;13.23;;
9208;SDS011;4639;48.862;9.188;2023-07-31T13:17:23;33.88;;;31.40;;
9208;SDS011;4639;48.862;9.188;2023-07-31T13:19:49;110.45;;;101.40;;
9208;SDS011;4639;48.862;9.188;2023-07-31T13:22:14;23.02;;;21.40;;
9208;SDS011;4639;48.862;9.188;2023-07-31T13:24:40;11.90;;;10.80;;
9208;SDS011;4639;48.862;9.188;2023-07-31T13:27:06;78.75;;;72.43;;
9208;SDS011;4639;48.862;9.188;2023-07-31T13:29:31;85.38;;;78.47;;
9208;SDS011;4639;48.862;9.188;2023-07-31T13:31:57;87.88;;;80.50;;
9208;SDS011;4639;48.862;9.188;2023-07-31T13:34:23;108.47;;;99.60;;
9208;SDS011;4639;48.862;9.188;2023-07-31T13:36:48;163.50;;;150.38;;
9208;SDS011;4639;48.862;9.188;2023-07-31T13:39:14;49.70;;;45.80;;
9208;SDS011;4639;48.862;9.188;2023-07-31T13:41:39;26.95;;;24.90;;
9208;SDS011;4639;48.862;9.188;2023-07-31T13:44:05;13.27;;;12.27;;
9208;SDS011;4639;48.862;9.188;2023-07-31T13:46:30;143.57;;;131.70;;
9208;SDS011;4639;48.862;9.188;2023-07-31T13:48:57;60.80;;;55.92;;
9208;SDS011;4639;48.862;9.188;2023-07-31T13:51:26;19.90;;;18.15;;
9208;SDS011;4639;48.862;9.188;2023-07-31T13:53:52;54.58;;;50.40;;
9208;SDS011;4639;48.862;9.188;2023-07-31T13:56:18;16.20;;;14.80;;
9208;SDS011;4639;48.862;9.188;2023-07-31T13:58:44;24.05;;;22.42;;
9208;SDS011;4639;48.862;9.188;2023-07-31T14:01:09;19.77;;;18.35;;
9208;SDS011;4639;48.862;9.188;2023-07-31T14:03:35;42.08;;;38.88;;
9208;SDS011;4639;48.862;9.188;2023-07-31T14:06:00;52.60;;;48.72;;
9208;SDS011;4639;48.862;9.188;2023-07-31T14:08:26;70.03;;;64.38;;
9208;SDS011;4639;48.862;9.188;2023-07-31T14:10:52;32.70;;;30.48;;
9208;SDS011;4639;48.862;9.188;2023-07-31T14:13:17;26.10;;;24.40;;
9208;SDS011;4639;48.862;9.188;2023-07-31T14:15:43;45.40;;;42.00;;
9208;SDS011;4639;48.862;9.188;2023-07-31T14:18:08;165.80;;;151.90;;
9208;SDS011;4639;48.862;9.188;2023-07-31T14:20:34;14.18;;;13.15;;
9208;SDS011;4639;48.862;9.188;2023-07-31T14:23:00;13.05;;;12.00;;
9208;SDS011;4639;48.862;9.188;2023-07-31T14:25:27;18.27;;;16.92;;
9208;SDS011;4639;48.862;9.188;2023-07-31T14:27:53;50.10;;;46.35;;
9208;SDS011;4639;48.862;9.188;2023-07-31T14:30:18;61.80;;;57.20;;
9208;SDS011;4639;48.862;9.188;2023-07-31T14:32:44;165.05;;;151.30;;
9208;SDS011;4639;48.862;9.188;2023-07-31T14:35:09;35.05;;;32.72;;
9208;SDS011;4639;48.862;9.188;2023-07-31T14:37:42;20.75;;;19.42;;
9208;SDS011;4639;48.862;9.188;2023-07-31T14:40:10;58.92;;;54.50;;
9208;SDS011;4639;48.862;9.188;2023-07-31T14:42:38;96.55;;;88.75;;
9208;SDS011;4639;48.862;9.188;2023-07-31T14:45:04;19.83;;;18.52;;
9208;SDS011;4639;48.862;9.188;2023-07-31T14:47:31;26.95;;;25.33;;
9208;SDS011;4639;48.862;9.188;2023-07-31T14:49:57;25.08;;;23.55;;